Time;durP1;ratioP1;P1;durP2;ratioP2;P2;SDS_P1;SDS_P2;PMS_P1;PMS_P2;Temp;Humidity;BMP_temperature;BMP_pressure;BME280_temperature;BME280_humidity;BME280_pressure;Samples;Min_cycle;Max_cycle;Signal;HPM_P1;HPM_P2
2023/12/17 00:01:35;;;;;;;20.05;4.47;;;;;;;-7.99;100.00;99012.56;5045019;28;20158;-58
2023/12/17 00:04:05;;;;;;;14.85;4.80;;;;;;;-8.01;100.00;99015.06;5051753;28;20048;-58
2023/12/17 00:06:37;;;;;;;13.65;4.22;;;;;;;-8.08;100.00;98985.25;5055380;28;20055;-58
2023/12/17 00:09:08;;;;;;;7.85;3.75;;;;;;;-8.03;100.00;99016.69;5044633;28;20090;-58
2023/12/17 00:11:41;;;;;;;12.48;4.75;;;;;;;-8.00;100.00;99032.00;5055750;28;20063;-58
2023/12/17 00:14:14;;;;;;;8.65;4.45;;;;;;;-7.96;100.00;99023.72;5044340;28;20195;-60
2023/12/17 00:16:44;;;;;;;9.88;4.00;;;;;;;-7.95;100.00;99020.34;5055408;28;20084;-58
2023/12/17 00:19:15;;;;;;;8.73;4.43;;;;;;;-8.04;100.00;99004.78;5046041;28;20154;-59
2023/12/17 00:21:45;;;;;;;10.75;4.57;;;;;;;-7.96;100.00;99013.56;5058243;28;20044;-59
2023/12/17 00:24:17;;;;;;;12.90;4.88;;;;;;;-7.90;100.00;99023.06;5049264;28;20060;-60
2023/12/17 00:26:47;;;;;;;8.32;4.30;;;;;;;-7.87;100.00;99013.88;5059194;28;20095;-61
2023/12/17 00:29:19;;;;;;;7.00;3.80;;;;;;;-7.86;100.00;99019.84;5049268;28;20118;-60
2023/12/17 00:31:49;;;;;;;9.82;4.95;;;;;;;-7.90;100.00;99007.84;5059759;28;20484;-60
2023/12/17 00:34:28;;;;;;;12.05;4.30;;;;;;;-7.88;100.00;99031.59;5049406;28;20836;-59
2023/12/17 00:36:59;;;;;;;6.82;3.97;;;;;;;-7.81;100.00;99029.34;5059013;28;20048;-60
2023/12/17 00:39:30;;;;;;;8.73;4.32;;;;;;;-7.79;100.00;99026.00;5040533;28;20097;-60
2023/12/17 00:42:00;;;;;;;11.57;5.05;;;;;;;-7.89;100.00;99018.03;5058656;28;20131;-59
2023/12/17 00:44:32;;;;;;;8.88;3.80;;;;;;;-8.21;100.00;98950.09;5040698;28;20131;-61
2023/12/17 00:47:03;;;;;;;11.40;4.43;;;;;;;-7.89;100.00;99009.56;5058149;28;20082;-59
2023/12/17 00:49:33;;;;;;;10.32;4.97;;;;;;;-7.98;100.00;99005.03;5041831;28;20861;-58
2023/12/17 00:52:04;;;;;;;11.57;4.22;;;;;;;-7.93;100.00;99013.69;5057680;28;20059;-57
2023/12/17 00:54:34;;;;;;;12.50;4.63;;;;;;;-8.09;100.00;99016.44;5043211;28;20150;-59
2023/12/17 00:57:05;;;;;;;5.28;3.65;;;;;;;-8.26;100.00;99009.09;5056172;28;20063;-59
2023/12/17 00:59:37;;;;;;;9.30;4.38;;;;;;;-8.32;100.00;99018.97;5058558;28;20484;-59
2023/12/17 01:02:08;;;;;;;10.73;4.13;;;;;;;-8.25;100.00;99020.94;5048570;28;20066;-60
2023/12/17 01:04:39;;;;;;;7.50;4.07;;;;;;;-8.42;100.00;99021.13;5058962;28;20541;-58
2023/12/17 01:07:09;;;;;;;12.50;3.78;;;;;;;-8.49;100.00;99010.75;5048572;28;20483;-60
2023/12/17 01:09:40;;;;;;;9.32;4.30;;;;;;;-8.56;100.00;99012.97;5058268;28;20066;-59
2023/12/17 01:12:10;;;;;;;9.07;3.58;;;;;;;-8.65;100.00;98997.44;5062029;28;20043;-60
2023/12/17 01:14:42;;;;;;;19.63;5.00;;;;;;;-8.86;100.00;98995.78;5058233;28;20052;-57
2023/12/17 01:17:13;;;;;;;10.07;4.32;;;;;;;-8.84;100.00;98996.69;5047933;28;20048;-58
2023/12/17 01:19:43;;;;;;;10.70;4.57;;;;;;;-8.85;100.00;98992.44;5058135;28;20075;-58
2023/12/17 01:22:14;;;;;;;13.73;4.15;;;;;;;-8.86;100.00;98988.19;5048269;28;20167;-58
2023/12/17 01:24:44;;;;;;;11.07;3.95;;;;;;;-8.81;100.00;98980.75;5058426;28;20060;-60
2023/12/17 01:27:15;;;;;;;7.85;4.22;;;;;;;-8.85;100.00;98989.91;5047223;28;20071;-58
2023/12/17 01:29:47;;;;;;;9.50;4.50;;;;;;;-8.83;100.00;98978.19;5058417;28;20128;-59
2023/12/17 01:32:17;;;;;;;7.78;3.65;;;;;;;-8.78;100.00;98976.69;5047402;28;20058;-60
2023/12/17 01:34:48;;;;;;;12.80;4.70;;;;;;;-8.78;100.00;98979.22;5060503;28;20093;-58
2023/12/17 01:37:18;;;;;;;7.13;3.97;;;;;;;-8.79;100.00;98964.81;5051262;28;20056;-59
2023/12/17 01:39:49;;;;;;;15.02;4.40;;;;;;;-8.85;100.00;98953.63;5060292;28;20511;-60
2023/12/17 01:42:19;;;;;;;12.18;4.57;;;;;;;-8.88;100.00;98941.69;5050476;28;20043;-59
2023/12/17 01:44:51;;;;;;;10.13;4.50;;;;;;;-8.94;100.00;98961.69;5061010;28;21258;-58
2023/12/17 01:47:22;;;;;;;6.88;4.00;;;;;;;-8.88;100.00;98959.41;5050891;27;20094;-59
2023/12/17 01:49:53;;;;;;;8.45;4.78;;;;;;;-8.89;100.00;98967.81;5060670;28;20052;-58
2023/12/17 01:52:24;;;;;;;11.02;3.85;;;;;;;-8.83;100.00;98972.28;5050812;28;20071;-59
2023/12/17 01:54:54;;;;;;;8.73;4.38;;;;;;;-8.85;100.00;98979.78;5060598;28;20067;-58
2023/12/17 01:57:25;;;;;;;6.20;4.22;;;;;;;-8.90;100.00;98940.78;5050445;28;20068;-57
2023/12/17 01:59:58;;;;;;;10.43;4.40;;;;;;;-8.89;100.00;98952.63;5059502;28;20052;-59
2023/12/17 02:02:29;;;;;;;10.18;4.57;;;;;;;-8.87;100.00;98961.13;5049761;28;20131;-59
2023/12/17 02:05:01;;;;;;;13.43;4.65;;;;;;;-8.91;100.00;98939.03;5060653;28;20079;-60
2023/12/17 02:07:31;;;;;;;13.02;4.00;;;;;;;-8.88;100.00;98951.81;5050317;28;20100;-61
2023/12/17 02:10:02;;;;;;;15.55;4.57;;;;;;;-8.95;100.00;98957.44;5060639;28;20097;-59
2023/12/17 02:12:32;;;;;;;16.88;5.25;;;;;;;-8.98;100.00;98968.31;5042543;28;20062;-60
2023/12/17 02:15:05;;;;;;;7.72;4.40;;;;;;;-9.03;100.00;98966.41;5056873;28;20056;-59
2023/12/17 02:17:35;;;;;;;6.03;4.18;;;;;;;-9.05;100.00;98970.53;5046814;28;20048;-59
2023/12/17 02:20:07;;;;;;;10.18;5.10;;;;;;;-9.07;100.00;98942.63;5048203;28;20061;-58
2023/12/17 02:22:38;;;;;;;14.35;4.55;;;;;;;-9.09;100.00;98950.97;5056553;28;20886;-59
2023/12/17 02:25:12;;;;;;;8.80;3.67;;;;;;;-9.04;100.00;98952.88;5045726;28;20776;-60
2023/12/17 02:27:43;;;;;;;9.30;4.18;;;;;;;-9.00;100.00;98964.84;5056033;28;20048;-59
2023/12/17 02:30:14;;;;;;;15.73;5.07;;;;;;;-8.96;100.00;98965.81;5046683;28;20067;-59
2023/12/17 02:32:44;;;;;;;17.05;4.47;;;;;;;-8.96;100.00;98960.75;5056536;28;20044;-59
2023/12/17 02:35:15;;;;;;;11.35;4.55;;;;;;;-8.92;100.00;98975.28;5046031;28;20093;-58
2023/12/17 02:37:46;;;;;;;8.38;3.80;;;;;;;-9.04;100.00;98957.06;5050930;28;21091;-59
2023/12/17 02:40:18;;;;;;;8.35;3.92;;;;;;;-9.04;100.00;98964.66;5046507;28;20105;-59
2023/12/17 02:42:48;;;;;;;8.85;4.65;;;;;;;-9.00;100.00;98964.00;5054386;28;20198;-59
2023/12/17 02:45:19;;;;;;;6.78;3.03;;;;;;;-8.91;100.00;98955.09;5044641;28;20063;-59
2023/12/17 02:47:50;;;;;;;8.23;4.70;;;;;;;-9.01;100.00;98957.19;5055942;28;20079;-59
2023/12/17 02:50:20;;;;;;;14.00;4.50;;;;;;;-8.93;100.00;98971.03;5046407;28;20892;-59
2023/12/17 02:52:50;;;;;;;12.73;4.40;;;;;;;-8.92;100.00;98958.41;5056908;28;20048;-59
2023/12/17 02:55:23;;;;;;;7.00;3.85;;;;;;;-9.00;100.00;98948.81;5047300;28;20048;-58
2023/12/17 02:57:53;;;;;;;7.95;3.85;;;;;;;-8.94;100.00;98969.28;5056770;28;20121;-60
2023/12/17 03:00:23;;;;;;;5.93;3.42;;;;;;;-8.98;100.00;98957.34;5045995;28;20649;-60
2023/12/17 03:02:54;;;;;;;8.80;4.50;;;;;;;-8.97;100.00;98964.09;5055661;28;20174;-58
2023/12/17 03:05:25;;;;;;;6.95;3.95;;;;;;;-8.95;100.00;98957.44;5045792;28;20075;-59
2023/12/17 03:07:55;;;;;;;16.20;4.60;;;;;;;-8.90;100.00;98961.03;5052954;28;20377;-59
2023/12/17 03:10:27;;;;;;;13.50;4.15;;;;;;;-8.87;100.00;98962.81;5045394;28;21125;-59
2023/12/17 03:12:58;;;;;;;6.07;3.42;;;;;;;-8.80;100.00;98973.25;5055698;28;20736;-58
2023/12/17 03:15:28;;;;;;;13.05;4.95;;;;;;;-8.88;100.00;98974.59;5045439;28;20091;-58
2023/12/17 03:17:59;;;;;;;7.20;3.63;;;;;;;-8.90;100.00;98966.94;5056004;28;20058;-60
2023/12/17 03:20:30;;;;;;;10.18;3.88;;;;;;;-8.87;100.00;98976.31;5044195;28;20050;-59
2023/12/17 03:23:00;;;;;;;5.40;3.50;;;;;;;-8.92;100.00;98982.88;5054935;28;20043;-61
2023/12/17 03:25:32;;;;;;;11.57;4.22;;;;;;;-9.10;100.00;98951.78;5044608;28;20051;-59
2023/12/17 03:28:03;;;;;;;8.45;3.63;;;;;;;-9.20;100.00;98981.75;5055092;28;20442;-58
2023/12/17 03:30:34;;;;;;;10.00;4.25;;;;;;;-9.26;100.00;98976.47;5043721;28;20110;-59
2023/12/17 03:33:04;;;;;;;5.88;4.20;;;;;;;-9.17;100.00;98986.94;5052940;28;20052;-59
2023/12/17 03:35:35;;;;;;;7.90;4.18;;;;;;;-9.18;100.00;98990.28;5055329;28;20047;-60
2023/12/17 03:38:06;;;;;;;7.43;3.72;;;;;;;-9.19;100.00;98973.34;5051057;28;20249;-58
2023/12/17 03:40:38;;;;;;;9.57;4.60;;;;;;;-9.16;100.00;98993.75;5055496;28;20072;-59
2023/12/17 03:43:09;;;;;;;9.30;3.88;;;;;;;-9.29;100.00;98991.47;5044636;28;20055;-60
2023/12/17 03:45:39;;;;;;;9.50;3.55;;;;;;;-9.32;100.00;99000.63;5054940;28;20048;-59
2023/12/17 03:48:10;;;;;;;17.40;4.28;;;;;;;-9.47;100.00;98995.78;5044398;28;20811;-61
2023/12/17 03:50:40;;;;;;;8.98;4.35;;;;;;;-9.49;100.00;99008.34;5055084;28;20044;-59
2023/12/17 03:53:11;;;;;;;9.88;3.72;;;;;;;-9.46;100.00;99016.09;5044394;28;20040;-58
2023/12/17 03:55:43;;;;;;;16.17;3.95;;;;;;;-9.57;100.00;99025.72;5055282;28;20035;-59
2023/12/17 03:58:14;;;;;;;14.60;4.00;;;;;;;-9.83;100.00;99006.03;5039038;28;20048;-59
2023/12/17 04:00:44;;;;;;;7.13;3.97;;;;;;;-9.85;100.00;99035.44;5053726;28;20242;-60
2023/12/17 04:03:15;;;;;;;10.75;5.38;;;;;;;-10.00;100.00;99036.47;5043956;28;20075;-60
2023/12/17 04:05:45;;;;;;;12.20;4.38;;;;;;;-9.98;100.00;99027.31;5054629;28;20044;-60
2023/12/17 04:08:16;;;;;;;9.48;3.92;;;;;;;-9.98;100.00;99052.56;5044141;28;20082;-59
2023/12/17 04:10:48;;;;;;;7.63;4.18;;;;;;;-10.18;100.00;99043.22;5053436;28;20076;-60
2023/12/17 04:13:18;;;;;;;4.90;3.20;;;;;;;-10.23;100.00;99045.53;5043890;28;20063;-59
2023/12/17 04:15:49;;;;;;;15.55;5.35;;;;;;;-10.24;100.00;99058.06;5053816;28;20063;-60
2023/12/17 04:18:21;;;;;;;6.15;4.25;;;;;;;-10.27;100.00;99073.09;5044791;28;20058;-60
2023/12/17 04:20:52;;;;;;;8.75;4.43;;;;;;;-10.36;99.84;99073.56;5055263;28;20051;-59
2023/12/17 04:23:23;;;;;;;9.45;4.63;;;;;;;-10.43;100.00;99087.56;5043839;28;20800;-61
2023/12/17 04:25:55;;;;;;;14.40;5.05;;;;;;;-10.47;99.60;99085.69;5054767;28;20062;-61
2023/12/17 04:28:25;;;;;;;12.05;5.03;;;;;;;-10.55;99.58;99107.19;5042954;28;20504;-60
2023/12/17 04:30:56;;;;;;;9.32;4.22;;;;;;;-10.54;99.15;99096.28;5053818;28;20652;-61
2023/12/17 04:33:26;;;;;;;7.43;4.40;;;;;;;-10.68;98.17;99097.28;5044681;28;20049;-62
2023/12/17 04:35:57;;;;;;;12.25;4.93;;;;;;;-10.71;98.68;99100.50;5054673;28;20063;-59
2023/12/17 04:38:27;;;;;;;7.03;4.15;;;;;;;-10.73;98.24;99106.25;5044442;28;20059;-61
2023/12/17 04:41:00;;;;;;;8.90;3.70;;;;;;;-10.76;97.97;99111.16;5049257;28;20079;-61
2023/12/17 04:43:30;;;;;;;5.65;3.65;;;;;;;-10.73;97.90;99101.22;5044400;28;20147;-61
2023/12/17 04:46:00;;;;;;;6.70;4.05;;;;;;;-10.78;97.64;99105.16;5054318;28;20044;-60
2023/12/17 04:48:31;;;;;;;8.05;4.22;;;;;;;-10.69;97.65;99119.09;5040434;28;20101;-60
2023/12/17 04:51:01;;;;;;;6.50;3.83;;;;;;;-10.79;96.45;99113.53;5051481;28;20048;-60
2023/12/17 04:53:32;;;;;;;7.75;4.45;;;;;;;-11.53;97.09;99006.44;5043753;28;20048;-61
2023/12/17 04:56:05;;;;;;;7.90;3.85;;;;;;;-10.95;97.08;99130.44;5054365;28;20052;-61
2023/12/17 04:58:36;;;;;;;9.02;3.75;;;;;;;-11.04;97.28;99104.75;5033227;28;20226;-59
2023/12/17 05:01:06;;;;;;;13.35;4.60;;;;;;;-11.02;97.03;99142.69;5047669;28;20142;-60
2023/12/17 05:03:38;;;;;;;5.95;3.70;;;;;;;-11.01;97.53;99155.34;5054043;28;20044;-61
2023/12/17 05:06:10;;;;;;;10.57;4.15;;;;;;;-11.04;97.09;99150.16;5046688;28;20052;-61
2023/12/17 05:08:41;;;;;;;4.93;3.90;;;;;;;-11.03;97.48;99156.06;5056969;28;20430;-61
2023/12/17 05:11:13;;;;;;;5.93;3.78;;;;;;;-11.04;97.30;99155.19;5047581;28;20052;-60
2023/12/17 05:13:43;;;;;;;13.65;4.72;;;;;;;-11.04;96.96;99165.28;5061515;28;20076;-60
2023/12/17 05:16:14;;;;;;;8.18;3.50;;;;;;;-11.05;96.73;99157.66;5050615;28;20151;-61
2023/12/17 05:18:44;;;;;;;7.53;4.03;;;;;;;-11.13;96.53;99159.75;5061103;28;20056;-60
2023/12/17 05:21:15;;;;;;;4.70;3.65;;;;;;;-11.15;97.09;99152.13;5047612;28;20307;-60
2023/12/17 05:23:45;;;;;;;3.90;3.42;;;;;;;-11.23;96.74;99153.41;5060190;28;20058;-61
2023/12/17 05:26:17;;;;;;;6.20;3.35;;;;;;;-11.18;97.06;99171.28;5050274;28;20545;-61
2023/12/17 05:28:48;;;;;;;6.75;3.65;;;;;;;-11.16;97.27;99169.69;5060129;28;20126;-60
2023/12/17 05:31:18;;;;;;;11.43;3.83;;;;;;;-11.21;97.15;99171.97;5050778;28;20131;-61
2023/12/17 05:33:50;;;;;;;12.00;5.03;;;;;;;-11.24;97.17;99170.97;5058971;28;20058;-61
2023/12/17 05:36:20;;;;;;;7.53;4.00;;;;;;;-11.37;97.18;99171.97;5050680;28;20044;-60
2023/12/17 05:38:51;;;;;;;11.88;4.28;;;;;;;-11.39;97.51;99166.84;5060965;28;20505;-61
2023/12/17 05:41:24;;;;;;;5.50;3.95;;;;;;;-11.38;97.39;99185.34;5049991;28;20075;-61
2023/12/17 05:43:54;;;;;;;7.13;3.70;;;;;;;-11.44;97.41;99183.38;5060773;28;20137;-60
2023/12/17 05:46:26;;;;;;;4.60;4.05;;;;;;;-11.47;97.90;99173.16;5050911;28;20561;-62
2023/12/17 05:48:56;;;;;;;8.60;4.20;;;;;;;-11.46;97.94;99184.97;5060595;28;20135;-61
2023/12/17 05:51:27;;;;;;;7.05;3.90;;;;;;;-11.42;98.03;99199.47;5049894;28;20048;-61
2023/12/17 05:53:58;;;;;;;9.88;4.25;;;;;;;-11.45;97.88;99196.78;5057460;28;21100;-59
2023/12/17 05:56:30;;;;;;;7.30;3.90;;;;;;;-11.49;97.63;99199.94;5050321;28;20105;-60
2023/12/17 05:59:01;;;;;;;6.88;4.53;;;;;;;-11.51;97.46;99202.34;5060365;28;20052;-60
2023/12/17 06:01:31;;;;;;;6.10;4.00;;;;;;;-11.46;97.50;99210.16;5050573;28;20125;-61
2023/12/17 06:04:02;;;;;;;5.38;4.13;;;;;;;-11.50;96.97;99225.94;5060417;28;20063;-60
2023/12/17 06:06:32;;;;;;;11.52;4.97;;;;;;;-11.68;96.57;99208.16;5049445;28;20044;-61
2023/12/17 06:09:03;;;;;;;8.55;4.15;;;;;;;-11.50;96.26;99228.44;5060121;28;20640;-60
2023/12/17 06:11:36;;;;;;;8.38;4.13;;;;;;;-11.52;95.08;99230.00;5049213;28;20143;-61
2023/12/17 06:14:06;;;;;;;7.70;4.40;;;;;;;-11.53;93.84;99228.25;5049464;28;20052;-59
2023/12/17 06:16:42;;;;;;;4.60;3.50;;;;;;;-11.45;93.14;99237.13;5060438;28;20070;-60
2023/12/17 06:19:13;;;;;;;6.38;4.00;;;;;;;-11.53;90.64;99243.38;5049141;28;20056;-61
2023/12/17 06:21:43;;;;;;;6.57;3.72;;;;;;;-11.53;88.86;99253.47;5059534;28;20063;-61
2023/12/17 06:24:14;;;;;;;11.90;4.40;;;;;;;-11.57;88.58;99251.59;5046098;28;20058;-61
2023/12/17 06:26:48;;;;;;;3.28;2.90;;;;;;;-11.58;87.51;99260.81;5059592;28;20059;-61
2023/12/17 06:29:19;;;;;;;5.43;3.25;;;;;;;-11.64;87.49;99262.09;5048876;27;20387;-61
2023/12/17 06:31:49;;;;;;;5.60;4.05;;;;;;;-11.65;86.84;99262.91;5059183;28;20567;-62
2023/12/17 06:34:20;;;;;;;6.03;3.50;;;;;;;-11.64;85.85;99284.78;5049636;28;20147;-60
2023/12/17 06:36:50;;;;;;;4.70;3.53;;;;;;;-11.64;85.71;99280.63;5059880;28;20051;-61
2023/12/17 06:39:21;;;;;;;5.30;3.90;;;;;;;-11.64;85.25;99289.84;5046288;28;20769;-60
2023/12/17 06:41:53;;;;;;;5.75;3.67;;;;;;;-11.72;84.69;99285.22;5059277;28;20404;-61
2023/12/17 06:44:25;;;;;;;3.80;3.10;;;;;;;-11.63;84.23;99311.72;5049688;28;20711;-61
2023/12/17 06:46:56;;;;;;;4.63;3.30;;;;;;;-11.64;84.26;99315.03;5057669;28;20052;-60
2023/12/17 06:49:26;;;;;;;5.55;3.95;;;;;;;-11.64;83.88;99315.03;5048688;28;20163;-60
2023/12/17 06:51:57;;;;;;;3.95;3.55;;;;;;;-11.58;84.18;99320.41;5059451;28;20055;-61
2023/12/17 06:54:27;;;;;;;6.43;3.35;;;;;;;-11.68;82.44;99308.06;5048358;28;20056;-61
2023/12/17 06:57:00;;;;;;;3.88;3.47;;;;;;;-11.66;82.64;99301.47;5059152;28;20060;-61
2023/12/17 06:59:30;;;;;;;4.35;3.15;;;;;;;-11.59;82.28;99333.81;5048863;28;20047;-60
2023/12/17 07:02:01;;;;;;;7.63;3.42;;;;;;;-11.56;82.49;99341.53;5059156;28;20048;-60
2023/12/17 07:04:31;;;;;;;5.22;3.40;;;;;;;-11.55;82.39;99345.81;5041022;28;20220;-60
2023/12/17 07:07:02;;;;;;;5.72;3.20;;;;;;;-11.52;82.11;99345.97;5055902;28;20708;-58
2023/12/17 07:09:33;;;;;;;4.90;2.90;;;;;;;-11.54;82.01;99353.44;5047954;28;20105;-60
2023/12/17 07:12:05;;;;;;;4.28;3.00;;;;;;;-11.56;81.45;99351.59;5058445;28;20453;-60
2023/12/17 07:14:35;;;;;;;4.60;3.15;;;;;;;-11.59;81.59;99359.00;5041234;28;20051;-60
2023/12/17 07:17:06;;;;;;;4.45;3.15;;;;;;;-11.58;81.35;99365.78;5049064;28;20499;-60
2023/12/17 07:19:37;;;;;;;3.50;3.10;;;;;;;-11.61;81.13;99375.69;5059010;28;20058;-60
2023/12/17 07:22:08;;;;;;;5.97;3.20;;;;;;;-11.62;81.50;99381.53;5048162;28;20052;-59
2023/12/17 07:24:38;;;;;;;4.38;2.70;;;;;;;-11.60;81.49;99377.44;5058672;28;20700;-61
2023/12/17 07:27:10;;;;;;;3.80;3.08;;;;;;;-11.58;81.88;99381.78;5048253;28;20178;-59
2023/12/17 07:29:41;;;;;;;4.28;3.03;;;;;;;-11.56;82.05;99384.38;5057342;28;20072;-59
2023/12/17 07:32:11;;;;;;;4.03;3.05;;;;;;;-11.55;81.82;99381.09;5047753;28;20415;-59
2023/12/17 07:34:42;;;;;;;3.10;2.70;;;;;;;-11.55;81.86;99388.66;5058723;28;20117;-61
2023/12/17 07:37:12;;;;;;;4.32;3.17;;;;;;;-11.56;81.69;99394.47;5047218;28;20170;-59
2023/12/17 07:39:43;;;;;;;3.83;3.08;;;;;;;-11.58;81.65;99398.53;5058205;28;20059;-61
2023/12/17 07:42:15;;;;;;;3.90;2.83;;;;;;;-11.60;81.62;99402.66;5044636;28;20075;-59
2023/12/17 07:44:45;;;;;;;5.93;3.28;;;;;;;-11.59;81.95;99404.38;5055003;28;20059;-60
2023/12/17 07:47:16;;;;;;;3.42;2.83;;;;;;;-11.68;81.87;99389.63;5048227;28;20047;-60
2023/12/17 07:49:46;;;;;;;3.50;3.20;;;;;;;-11.95;82.10;99348.63;5058125;28;20488;-59
2023/12/17 07:52:16;;;;;;;4.68;3.30;;;;;;;-11.63;82.15;99410.91;5048138;28;20063;-60
2023/12/17 07:54:47;;;;;;;4.47;2.70;;;;;;;-11.64;82.01;99405.75;5058012;28;20051;-61
2023/12/17 07:57:19;;;;;;;5.45;3.50;;;;;;;-11.66;82.09;99414.88;5047542;28;20154;-60
2023/12/17 07:59:50;;;;;;;4.50;3.60;;;;;;;-11.66;82.19;99417.41;5054835;28;20051;-59
2023/12/17 08:02:21;;;;;;;7.15;4.05;;;;;;;-11.69;82.04;99420.63;5047585;28;20052;-60
2023/12/17 08:04:51;;;;;;;5.55;4.00;;;;;;;-11.67;82.33;99414.03;5055388;28;20158;-60
2023/12/17 08:07:22;;;;;;;4.13;3.55;;;;;;;-11.70;82.33;99423.03;5045032;28;20048;-60
2023/12/17 08:09:52;;;;;;;5.40;3.53;;;;;;;-12.38;82.14;99313.34;5054694;28;20407;-59
2023/12/17 08:12:24;;;;;;;5.18;3.97;;;;;;;-11.80;82.52;99429.22;5044703;28;20483;-61
2023/12/17 08:14:55;;;;;;;6.30;3.35;;;;;;;-11.85;82.77;99431.47;5054731;28;20430;-60
2023/12/17 08:17:25;;;;;;;6.95;3.50;;;;;;;-11.90;82.92;99427.84;5044394;28;20057;-59
2023/12/17 08:19:56;;;;;;;6.07;3.55;;;;;;;-11.92;82.87;99429.38;5054316;28;20060;-59
2023/12/17 08:22:26;;;;;;;6.68;4.57;;;;;;;-11.95;83.14;99426.69;5044151;28;20057;-59
2023/12/17 08:24:57;;;;;;;5.93;3.58;;;;;;;-11.98;83.27;99427.41;5054817;28;20097;-60
2023/12/17 08:27:28;;;;;;;3.20;2.90;;;;;;;-11.99;83.28;99432.31;5044186;28;20051;-60
2023/12/17 08:29:59;;;;;;;6.38;3.35;;;;;;;-12.02;83.08;99439.72;5054548;28;20050;-59
2023/12/17 08:32:31;;;;;;;4.18;2.90;;;;;;;-12.08;83.42;99439.31;5035503;28;20643;-60
2023/12/17 08:35:02;;;;;;;8.80;3.40;;;;;;;-12.10;83.40;99449.31;5053704;28;20051;-59
2023/12/17 08:37:33;;;;;;;3.67;3.13;;;;;;;-12.14;83.38;99446.53;5043766;28;20056;-61
2023/12/17 08:40:04;;;;;;;4.40;3.08;;;;;;;-12.16;83.75;99447.28;5054410;28;20048;-60
2023/12/17 08:42:36;;;;;;;3.80;3.40;;;;;;;-12.16;83.73;99449.81;5047886;28;20048;-60
2023/12/17 08:45:08;;;;;;;3.15;2.90;;;;;;;-12.38;83.55;99417.47;5048445;28;20052;-60
2023/12/17 08:47:38;;;;;;;3.63;2.60;;;;;;;-12.17;83.75;99452.25;5062008;28;20048;-60
2023/12/17 08:50:10;;;;;;;3.25;2.85;;;;;;;-12.56;83.48;99390.28;5051031;28;20062;-60
2023/12/17 08:52:41;;;;;;;4.38;3.00;;;;;;;-12.24;83.36;99451.00;5062000;28;20146;-60
2023/12/17 08:55:12;;;;;;;4.68;3.03;;;;;;;-12.26;83.25;99447.50;5048453;28;20422;-59
2023/12/17 08:57:44;;;;;;;3.88;3.20;;;;;;;-12.26;83.03;99462.63;5058217;28;20082;-59
2023/12/17 09:00:16;;;;;;;3.95;3.30;;;;;;;-12.90;82.82;99360.53;5046856;28;20189;-60
2023/12/17 09:02:46;;;;;;;3.42;2.80;;;;;;;-12.36;82.88;99465.34;5060281;28;20044;-60
2023/12/17 09:05:17;;;;;;;3.10;2.90;;;;;;;-12.30;82.76;99470.78;5051053;28;20139;-59
2023/12/17 09:07:47;;;;;;;4.43;2.80;;;;;;;-12.32;82.92;99472.34;5061205;28;20406;-61
2023/12/17 09:10:19;;;;;;;3.38;3.08;;;;;;;-12.31;82.98;99479.09;5051301;28;20052;-60
2023/12/17 09:12:51;;;;;;;3.55;2.78;;;;;;;-12.31;82.88;99489.16;5059611;28;20541;-60
2023/12/17 09:15:22;;;;;;;3.08;2.85;;;;;;;-12.29;82.68;99482.59;5050786;28;20598;-60
2023/12/17 09:17:52;;;;;;;3.47;3.17;;;;;;;-12.29;82.42;99492.66;5061189;28;20056;-60
2023/12/17 09:20:23;;;;;;;11.00;3.13;;;;;;;-12.32;82.53;99492.47;5050116;28;20070;-60
2023/12/17 09:22:54;;;;;;;4.70;3.13;;;;;;;-12.30;82.55;99497.59;5060210;28;20059;-59
2023/12/17 09:25:24;;;;;;;5.82;3.22;;;;;;;-12.28;82.54;99503.59;5053013;28;20135;-60
2023/12/17 09:27:56;;;;;;;3.40;3.10;;;;;;;-12.32;82.18;99507.59;5066061;28;20063;-58
2023/12/17 09:30:27;;;;;;;3.80;2.85;;;;;;;-12.34;82.20;99509.13;5045090;28;20049;-58
2023/12/17 09:32:58;;;;;;;5.95;3.55;;;;;;;-12.36;82.08;99515.72;5031416;28;20045;-59
2023/12/17 09:35:29;;;;;;;3.00;2.80;;;;;;;-12.37;81.85;99513.97;5021475;28;20060;-58
2023/12/17 09:37:59;;;;;;;7.30;3.30;;;;;;;-12.39;81.68;99523.06;5033197;28;20056;-58
2023/12/17 09:40:31;;;;;;;3.78;3.40;;;;;;;-12.39;81.57;99523.06;5041180;28;20095;-60
2023/12/17 09:43:06;;;;;;;5.45;3.08;;;;;;;-12.39;81.59;99523.06;5054310;28;20075;-60
2023/12/17 09:45:38;;;;;;;4.78;3.22;;;;;;;-12.50;81.48;99516.50;5046062;28;20056;-60
2023/12/17 09:48:09;;;;;;;4.85;3.08;;;;;;;-12.46;81.29;99529.38;5049870;28;20495;-60
2023/12/17 09:50:39;;;;;;;4.63;3.17;;;;;;;-12.59;81.19;99531.91;5057015;28;20052;-60
2023/12/17 09:53:10;;;;;;;3.25;2.95;;;;;;;-12.50;81.17;99546.69;5049928;28;20048;-60
2023/12/17 09:55:41;;;;;;;5.20;3.60;;;;;;;-12.50;81.14;99549.22;5061899;28;20052;-60
2023/12/17 09:58:13;;;;;;;4.53;3.17;;;;;;;-12.52;81.20;99548.25;5050702;28;20067;-60
2023/12/17 10:00:46;;;;;;;6.78;3.03;;;;;;;-12.53;81.08;99552.41;5060852;28;20059;-60
2023/12/17 10:03:17;;;;;;;3.88;3.08;;;;;;;-12.57;81.00;99554.66;5046964;28;20170;-60
2023/12/17 10:05:52;;;;;;;3.83;3.53;;;;;;;-12.55;80.64;99563.16;5056929;28;20047;-60
2023/12/17 10:08:24;;;;;;;3.50;3.13;;;;;;;-12.56;80.80;99569.84;5047320;28;20053;-60
2023/12/17 10:10:55;;;;;;;4.38;3.28;;;;;;;-12.59;80.72;99567.13;5059979;28;20052;-60
2023/12/17 10:13:27;;;;;;;6.03;3.30;;;;;;;-12.61;80.47;99569.53;5051595;28;20060;-59
2023/12/17 10:15:58;;;;;;;3.63;3.30;;;;;;;-12.64;80.53;99579.41;5060163;28;20098;-60
2023/12/17 10:18:28;;;;;;;2.97;2.72;;;;;;;-12.68;80.42;99577.50;5049705;28;20048;-60
2023/12/17 10:20:59;;;;;;;3.25;3.05;;;;;;;-12.69;80.47;99585.78;5059730;28;20097;-60
2023/12/17 10:23:46;;;;;;;10.13;3.70;;;;;;;-12.71;80.27;99576.41;5041556;28;20040;-60
2023/12/17 10:26:17;;;;;;;6.28;3.55;;;;;;;-12.76;80.53;99578.63;5049729;28;20484;-60
2023/12/17 10:28:53;;;;;;;3.83;3.22;;;;;;;-12.82;80.31;99583.28;5060206;28;20055;-60
2023/12/17 10:31:26;;;;;;;4.35;3.25;;;;;;;-12.95;80.87;99570.66;5049879;28;20048;-60
2023/12/17 10:34:03;;;;;;;8.52;3.20;;;;;;;-12.90;80.47;99587.81;5059511;28;20044;-60
2023/12/17 10:36:34;;;;;;;3.33;3.10;;;;;;;-12.93;80.76;99594.25;5041408;28;20883;-60
2023/12/17 10:39:05;;;;;;;3.13;2.92;;;;;;;-12.98;80.95;99595.59;5056809;28;20904;-60
2023/12/17 10:41:38;;;;;;;5.78;3.35;;;;;;;-13.05;80.76;99595.22;5049393;28;20056;-60
2023/12/17 10:44:12;;;;;;;5.60;3.42;;;;;;;-13.08;80.88;99600.06;5049127;28;20985;-61
2023/12/17 10:46:44;;;;;;;4.35;3.03;;;;;;;-13.16;80.60;99596.13;5059906;28;20109;-60
2023/12/17 10:49:15;;;;;;;4.97;3.42;;;;;;;-13.23;80.75;99599.00;5049153;28;20662;-61
2023/12/17 10:51:45;;;;;;;4.10;3.13;;;;;;;-13.25;81.15;99590.53;5059434;28;20052;-60
2023/12/17 10:54:16;;;;;;;3.58;2.90;;;;;;;-13.26;81.78;99593.78;5045504;28;20114;-60
2023/12/17 10:56:50;;;;;;;3.53;3.22;;;;;;;-13.58;81.76;99539.75;5059201;28;20052;-60
2023/12/17 10:59:26;;;;;;;5.47;3.35;;;;;;;-13.26;81.80;99601.31;5049067;28;20055;-60
2023/12/17 11:02:11;;;;;;;3.67;3.30;;;;;;;-13.31;81.92;99590.13;5045773;28;20091;-61
2023/12/17 11:04:45;;;;;;;6.38;3.40;;;;;;;-13.34;81.69;99597.47;5058828;28;20096;-60
2023/12/17 11:07:20;;;;;;;4.68;3.65;;;;;;;-13.36;82.01;99606.53;5049236;28;20095;-60
2023/12/17 11:10:08;;;;;;;3.10;2.90;;;;;;;-13.37;81.97;99604.81;5050753;28;20051;-61
2023/12/17 11:12:40;;;;;;;4.47;3.83;;;;;;;-13.38;81.94;99608.06;5055083;28;20071;-60
2023/12/17 11:15:14;;;;;;;14.02;5.63;;;;;;;-13.44;81.94;99597.63;5045339;28;20067;-61
2023/12/17 11:17:44;;;;;;;11.48;5.38;;;;;;;-13.33;81.96;99616.78;5058980;28;20839;-61
2023/12/17 11:20:16;;;;;;;13.15;5.20;;;;;;;-13.34;81.89;99625.13;5048517;28;20051;-60
2023/12/17 11:22:47;;;;;;;12.48;6.10;;;;;;;-13.37;81.62;99634.97;5058502;28;20996;-61
2023/12/17 11:25:21;;;;;;;9.05;5.70;;;;;;;-13.40;81.82;99634.75;5049196;28;20117;-61
2023/12/17 11:27:52;;;;;;;7.40;4.97;;;;;;;-13.39;81.46;99636.50;5059374;28;20533;-60
2023/12/17 11:30:31;;;;;;;6.68;4.50;;;;;;;-13.42;81.61;99636.31;5045442;28;20058;-61
2023/12/17 11:33:03;;;;;;;6.32;4.28;;;;;;;-13.44;81.42;99638.69;5057006;28;20508;-61
2023/12/17 11:35:36;;;;;;;8.32;3.90;;;;;;;-13.51;81.50;99636.53;5046208;28;20070;-60
2023/12/17 11:38:07;;;;;;;8.13;3.75;;;;;;;-13.45;81.86;99653.66;5047026;28;20059;-61
2023/12/17 11:40:39;;;;;;;5.20;3.58;;;;;;;-13.49;81.70;99650.94;5057129;28;20098;-61
2023/12/17 11:43:09;;;;;;;3.00;2.80;;;;;;;-13.54;81.94;99642.22;5046324;28;20139;-61